Date,TemperatureHighF,TemperatureAvgF,TemperatureLowF,DewpointHighF,DewpointAvgF,DewpointLowF,HumidityHigh,HumidityAvg,HumidityLow,PressureMaxIn,PressureMinIn,WindSpeedMaxMPH,WindSpeedAvgMPH,GustSpeedMaxMPH,PrecipitationSumIn
2013-3-1,53,44,32,34,31,28,84,62,41,30.26,30.16,18,5,18,0.00
2013-3-2,52,40,33,32,26,21,83,58,34,30.40,30.24,16,5,19,1.20
2013-3-3,67,51,31,41,33,26,88,54,31,30.24,29.83,20,7,20,0.00
2013-3-4,78,66,55,57,50,41,78,59,35,29.83,29.59,32,10,32,0.00
2013-3-5,66,52,45,58,34,23,76,51,27,30.33,29.64,26,8,28,0.00
2013-3-6,60,47,37,39,29,18,76,50,21,30.44,30.19,16,2,16,0.00
2013-3-7,68,54,39,38,34,28,78,48,27,30.27,30.11,14,4,16,0.00
2013-3-8,68,59,48,52,46,36,78,62,46,30.21,30.01,14,4,14,0.00
2013-3-9,72,64,57,61,57,46,86,78,61,30.01,29.65,23,11,29,0.00
2013-3-10,66,52,40,61,42,31,93,70,48,30.05,29.66,21,5,21,0.47
2013-3-11,57,44,33,36,30,25,85,61,31,30.08,29.99,12,2,17,0.00
2013-3-12,67,51,35,42,34,25,90,57,23,30.28,30.03,11,1,11,0.00
2013-3-13,66,56,47,44,36,29,78,50,27,30.44,30.28,5,1,7,0.00
2013-3-14,76,60,47,48,41,34,73,51,32,30.35,30.16,18,3,18,0.00
2013-3-15,79,66,53,55,49,44,83,57,33,30.16,29.88,18,6,22,0.00
2013-3-16,78,68,58,59,55,50,88,64,47,29.88,29.69,20,9,23,0.00
2013-3-17,76,67,55,62,59,51,91,76,58,29.77,29.61,18,5,18,0.00
2013-3-18,70,62,53,65,53,42,93,73,48,29.99,29.61,16,5,20,0.00
2013-3-19,68,58,50,49,43,39,80,60,39,30.10,29.93,10,3,13,0.00
2013-3-20,67,57,49,44,37,29,73,50,26,30.28,30.03,11,2,12,0.00
2013-3-21,65,56,49,55,40,33,76,55,40,30.02,29.60,18,6,27,0.00
2013-3-22,64,64,63,57,56,55,79,76,73,29.62,29.61,14,7,15,0.00
2013-3-24,53,46,40,48,34,27,90,63,44,30.15,29.80,20,7,27,0.01
2013-3-25,54,44,31,28,24,18,75,47,26,30.38,30.15,19,6,20,0.00
2013-3-26,55,44,34,34,25,21,70,48,27,30.49,30.31,13,3,13,0.00
2013-3-27,68,53,37,46,33,26,79,48,26,30.34,30.11,17,5,17,0.00
2013-3-28,70,62,51,56,51,40,82,69,51,30.23,30.09,16,6,16,0.00
2013-3-29,74,67,59,60,57,55,87,72,59,30.17,30.05,14,4,16,0.00
2013-3-30,76,66,57,67,60,55,95,83,68,30.05,29.88,14,3,19,0.65
2013-3-31,74,64,55,63,59,53,94,84,61,29.95,29.81,19,2,24,0.15